createdAt,value
2022-08-04T00:00:12.380Z,1008.94
2022-08-04T00:00:34.702Z,1008.94
2022-08-04T00:00:59.912Z,1008.94
2022-08-04T00:01:32.307Z,1008.94
2022-08-04T00:02:03.881Z,1008.94
2022-08-04T00:02:34.960Z,1008.94
2022-08-04T00:02:52.224Z,1008.94
2022-08-04T00:03:24.693Z,1008.94
2022-08-04T00:03:42.092Z,1009.04
2022-08-04T00:04:12.953Z,1009.04
2022-08-04T00:04:34.815Z,1008.94
2022-08-04T00:04:59.920Z,1008.94
2022-08-04T00:05:32.606Z,1008.94
2022-08-04T00:06:04.050Z,1009.04
2022-08-04T00:06:34.851Z,1008.84
2022-08-04T00:06:52.685Z,1008.84
2022-08-04T00:07:44.326Z,1008.84
2022-08-04T00:07:55.930Z,1008.84
2022-08-04T00:08:27.897Z,1008.84
2022-08-04T00:08:59.961Z,1008.84
2022-08-04T00:09:32.788Z,1008.84
2022-08-04T00:10:03.998Z,1009.04
2022-08-04T00:10:34.822Z,1009.04
2022-08-04T00:10:52.005Z,1009.04
2022-08-04T00:11:23.849Z,1009.04
2022-08-04T00:11:41.091Z,1008.84
2022-08-04T00:12:11.996Z,1008.84
2022-08-04T00:12:39.566Z,1008.84
2022-08-04T00:12:59.934Z,1008.84
2022-08-04T00:13:33.821Z,1008.84
2022-08-04T00:14:04.124Z,1008.74
2022-08-04T00:14:34.842Z,1008.94
2022-08-04T00:14:53.075Z,1008.94
2022-08-04T00:15:23.962Z,1008.94
2022-08-04T00:15:41.071Z,1009.04
2022-08-04T00:16:11.973Z,1009.04
2022-08-04T00:16:37.742Z,1008.84
2022-08-04T00:16:59.911Z,1008.84
2022-08-04T00:17:31.894Z,1008.84
2022-08-04T00:18:03.982Z,1008.94
2022-08-04T00:18:34.789Z,1009.04
2022-08-04T00:18:52.066Z,1009.04
2022-08-04T00:19:24.602Z,1009.04
2022-08-04T00:19:41.847Z,1008.74
2022-08-04T00:20:12.326Z,1008.74
2022-08-04T00:20:36.514Z,1009.04
2022-08-04T00:21:00.890Z,1009.04
2022-08-04T00:21:32.998Z,1009.04
2022-08-04T00:22:03.984Z,1008.84
2022-08-04T00:22:34.724Z,1008.94
2022-08-04T00:22:51.887Z,1008.94
2022-08-04T00:23:23.873Z,1008.94
2022-08-04T00:24:10.319Z,1008.84
2022-08-04T00:24:28.521Z,1008.84
2022-08-04T00:24:59.976Z,1008.94
2022-08-04T00:25:32.079Z,1008.94
2022-08-04T00:26:03.964Z,1008.84
2022-08-04T00:26:34.874Z,1009.04
2022-08-04T00:26:52.500Z,1009.04
2022-08-04T00:27:24.079Z,1009.04
2022-08-04T00:27:40.934Z,1008.84
2022-08-04T00:28:12.049Z,1008.84
2022-08-04T00:28:34.746Z,1008.84
2022-08-04T00:29:00.011Z,1008.84
2022-08-04T00:29:33.194Z,1008.84
2022-08-04T00:30:04.150Z,1008.94
2022-08-04T00:30:34.899Z,1009.11
2022-08-04T00:30:52.192Z,1009.11
2022-08-04T00:31:33.217Z,1009.11
2022-08-04T00:32:12.029Z,1008.94
2022-08-04T00:32:35.391Z,1008.94
2022-08-04T00:32:59.965Z,1008.94
2022-08-04T00:33:31.900Z,1008.94
2022-08-04T00:34:04.089Z,1008.94
2022-08-04T00:34:35.554Z,1008.94
2022-08-04T00:35:07.848Z,1008.94
2022-08-04T00:35:34.909Z,1008.74
2022-08-04T00:35:55.958Z,1008.74
2022-08-04T00:36:28.681Z,1008.74
2022-08-04T00:36:59.911Z,1008.94
2022-08-04T00:37:31.888Z,1008.94
2022-08-04T00:38:03.973Z,1008.74
2022-08-04T00:38:34.793Z,1008.84
2022-08-04T00:39:07.869Z,1008.84
2022-08-04T00:39:34.996Z,1008.94
2022-08-04T00:39:56.896Z,1008.94
2022-08-04T00:40:29.024Z,1008.94
2022-08-04T00:40:59.884Z,1008.94
2022-08-04T00:41:31.991Z,1008.94
2022-08-04T00:42:04.007Z,1008.84
2022-08-04T00:42:34.868Z,1008.94
2022-08-04T00:43:07.770Z,1008.94
2022-08-04T00:43:34.872Z,1009.11
2022-08-04T00:43:55.884Z,1009.11
2022-08-04T00:44:27.931Z,1009.11
2022-08-04T00:45:01.398Z,1008.84
2022-08-04T00:45:35.744Z,1008.84
2022-08-04T00:46:19.893Z,1009.11
2022-08-04T00:46:51.983Z,1009.11
2022-08-04T00:47:24.932Z,1009.11
2022-08-04T00:47:55.927Z,1008.94
2022-08-04T00:48:27.874Z,1008.94
2022-08-04T00:48:59.884Z,1009.11
2022-08-04T00:49:33.049Z,1009.11
2022-08-04T00:50:04.530Z,1009.11
2022-08-04T00:50:34.742Z,1009.21
2022-08-04T00:50:53.156Z,1009.21
2022-08-04T00:51:23.822Z,1009.21
2022-08-04T00:51:41.031Z,1009.11
2022-08-04T00:52:32.183Z,1009.11
2022-08-04T00:52:43.879Z,1009.11
2022-08-04T00:53:16.775Z,1009.11
2022-08-04T00:53:34.927Z,1009.11
2022-08-04T00:54:04.197Z,1009.11
2022-08-04T00:54:34.844Z,1008.94
2022-08-04T00:55:09.213Z,1008.94
2022-08-04T00:55:36.832Z,1009.04
2022-08-04T00:55:55.874Z,1009.04
2022-08-04T00:56:27.873Z,1009.04
2022-08-04T00:56:59.864Z,1009.21
2022-08-04T00:57:34.056Z,1009.21
2022-08-04T00:58:03.927Z,1009.04
2022-08-04T00:58:34.777Z,1009.11
2022-08-04T00:59:07.812Z,1009.11
2022-08-04T00:59:35.779Z,1009.21
2022-08-04T00:59:56.739Z,1009.21
2022-08-04T01:00:27.951Z,1009.21
2022-08-04T01:00:59.956Z,1009.11
2022-08-04T01:01:33.651Z,1009.11
2022-08-04T01:02:03.964Z,1009.31
2022-08-04T01:02:34.795Z,1009.11
2022-08-04T01:02:52.644Z,1009.11
2022-08-04T01:03:23.793Z,1009.11
2022-08-04T01:03:41.138Z,1009.21
2022-08-04T01:04:12.176Z,1009.21
2022-08-04T01:04:34.814Z,1009.11
2022-08-04T01:04:59.903Z,1009.11
2022-08-04T01:05:38.059Z,1009.11
2022-08-04T01:06:03.983Z,1009.31
2022-08-04T01:06:35.961Z,1009.11
2022-08-04T01:07:08.640Z,1009.11
2022-08-04T01:07:36.603Z,1009.04
2022-08-04T01:07:55.858Z,1009.04
2022-08-04T01:08:27.856Z,1009.04
2022-08-04T01:08:59.870Z,1009.21
2022-08-04T01:09:31.891Z,1009.21
2022-08-04T01:10:03.852Z,1009.11
2022-08-04T01:10:34.795Z,1009.21
2022-08-04T01:11:07.840Z,1009.21
2022-08-04T01:11:56.686Z,1009.21
2022-08-04T01:12:12.040Z,1009.21
2022-08-04T01:12:36.698Z,1009.04
2022-08-04T01:12:59.885Z,1009.04
2022-08-04T01:13:31.836Z,1009.04
2022-08-04T01:14:03.879Z,1009.11
2022-08-04T01:14:34.882Z,1009.04
2022-08-04T01:15:08.723Z,1009.04
2022-08-04T01:15:53.868Z,1009.11
2022-08-04T01:16:11.971Z,1009.11
2022-08-04T01:16:34.737Z,1009.11
2022-08-04T01:16:59.870Z,1009.11
2022-08-04T01:17:33.136Z,1009.11
2022-08-04T01:18:03.932Z,1009.04
2022-08-04T01:18:34.881Z,1009.21
2022-08-04T01:19:07.780Z,1009.21
2022-08-04T01:19:35.563Z,1009.11
2022-08-04T01:19:55.913Z,1009.11
2022-08-04T01:20:29.430Z,1009.11
2022-08-04T01:20:59.805Z,1009.11
2022-08-04T01:21:32.007Z,1009.11
2022-08-04T01:22:03.962Z,1009.11
2022-08-04T01:22:34.826Z,1009.21
2022-08-04T01:23:07.855Z,1009.21
2022-08-04T01:23:34.840Z,1009.11
2022-08-04T01:23:55.840Z,1009.11
2022-08-04T01:24:28.896Z,1009.11
2022-08-04T01:24:59.856Z,1009.31
2022-08-04T01:25:33.230Z,1009.31
2022-08-04T01:26:09.727Z,1008.94
2022-08-04T01:26:53.794Z,1009.04
2022-08-04T01:27:23.740Z,1009.04
2022-08-04T01:27:40.961Z,1009.04
2022-08-04T01:28:12.025Z,1009.04
2022-08-04T01:28:34.856Z,1009.04
2022-08-04T01:28:59.860Z,1009.04
2022-08-04T01:29:43.965Z,1009.04
2022-08-04T01:30:03.980Z,1009.11
2022-08-04T01:30:34.857Z,1009.11
2022-08-04T01:31:08.453Z,1009.11
2022-08-04T01:31:34.833Z,1008.94
2022-08-04T01:31:56.758Z,1008.94
2022-08-04T01:32:27.841Z,1008.94
2022-08-04T01:32:59.898Z,1008.84
2022-08-04T01:33:31.821Z,1008.84
2022-08-04T01:34:19.817Z,1009.04
2022-08-04T01:34:51.842Z,1009.04
2022-08-04T01:35:46.973Z,1009.04
2022-08-04T01:35:55.925Z,1009.04
2022-08-04T01:36:27.988Z,1009.04
2022-08-04T01:36:59.899Z,1009.04
2022-08-04T01:37:31.834Z,1009.04
2022-08-04T01:38:20.849Z,1008.94
2022-08-04T01:38:34.879Z,1009.11
2022-08-04T01:39:07.727Z,1009.11
2022-08-04T01:39:34.933Z,1008.94
2022-08-04T01:39:55.912Z,1008.94
2022-08-04T01:40:28.748Z,1008.94
2022-08-04T01:40:59.777Z,1009.04
2022-08-04T01:41:32.701Z,1009.04
2022-08-04T01:42:04.670Z,1009.04
2022-08-04T01:42:35.978Z,1008.94
2022-08-04T01:43:07.943Z,1008.94
2022-08-04T01:43:34.829Z,1008.94
2022-08-04T01:43:55.839Z,1008.94
2022-08-04T01:44:27.824Z,1008.94
2022-08-04T01:44:59.870Z,1008.94
2022-08-04T01:45:33.055Z,1008.94
2022-08-04T01:46:03.867Z,1008.94
2022-08-04T01:46:34.866Z,1009.04
2022-08-04T01:46:52.651Z,1009.04
2022-08-04T01:47:23.833Z,1009.04
2022-08-04T01:47:40.990Z,1008.84
2022-08-04T01:48:13.911Z,1008.84
2022-08-04T01:48:34.881Z,1008.84
2022-08-04T01:48:59.865Z,1008.84
2022-08-04T01:49:32.140Z,1008.84
2022-08-04T01:50:04.735Z,1008.94
2022-08-04T01:50:35.919Z,1008.84
2022-08-04T01:51:07.693Z,1008.84
2022-08-04T01:51:36.306Z,1008.84
2022-08-04T01:51:55.773Z,1008.84
2022-08-04T01:52:28.648Z,1008.84
2022-08-04T01:52:59.909Z,1008.74
2022-08-04T01:53:31.847Z,1008.74
2022-08-04T01:54:04.049Z,1008.74
2022-08-04T01:54:36.288Z,1008.84
2022-08-04T01:55:07.759Z,1008.84
2022-08-04T01:55:51.951Z,1008.84
2022-08-04T01:56:11.839Z,1008.84
2022-08-04T01:56:35.917Z,1008.84
2022-08-04T01:56:59.870Z,1008.84
2022-08-04T01:57:38.123Z,1008.84
2022-08-04T01:58:03.947Z,1008.53
2022-08-04T01:58:34.816Z,1008.84
2022-08-04T01:59:07.780Z,1008.84
2022-08-04T01:59:34.744Z,1008.63
2022-08-04T01:59:56.254Z,1008.63
2022-08-04T02:00:28.868Z,1008.63
2022-08-04T02:00:59.918Z,1008.74
2022-08-04T02:01:32.914Z,1008.74
2022-08-04T02:02:04.032Z,1009.04
2022-08-04T02:02:36.114Z,1008.84
2022-08-04T02:03:07.831Z,1008.84
2022-08-04T02:04:20.252Z,1008.63
2022-08-04T02:04:28.852Z,1008.63
2022-08-04T02:04:59.902Z,1008.63
2022-08-04T02:06:03.876Z,1008.63
2022-08-04T02:06:19.812Z,1008.74
2022-08-04T02:06:53.020Z,1008.74
2022-08-04T02:07:24.055Z,1008.74
2022-08-04T02:07:40.939Z,1008.74
2022-08-04T02:08:11.821Z,1008.74
2022-08-04T02:08:34.889Z,1008.84
2022-08-04T02:08:59.924Z,1008.84
2022-08-04T02:09:31.833Z,1008.84
2022-08-04T02:10:03.876Z,1008.63
2022-08-04T02:10:34.752Z,1008.74
2022-08-04T02:11:07.696Z,1008.74
2022-08-04T02:11:36.058Z,1008.74
2022-08-04T02:12:16.103Z,1008.74
2022-08-04T02:12:34.829Z,1008.53
2022-08-04T02:12:59.783Z,1008.53
2022-08-04T02:13:33.039Z,1008.53
2022-08-04T02:14:03.825Z,1008.53
2022-08-04T02:14:34.808Z,1008.74
2022-08-04T02:15:07.854Z,1008.74
2022-08-04T02:15:34.741Z,1008.74
2022-08-04T02:15:55.716Z,1008.74
2022-08-04T02:16:27.791Z,1008.74
2022-08-04T02:17:00.474Z,1008.53
2022-08-04T02:17:31.838Z,1008.53
2022-08-04T02:18:03.886Z,1008.74
2022-08-04T02:18:36.934Z,1008.53
2022-08-04T02:19:07.863Z,1008.53
2022-08-04T02:19:34.887Z,1008.74
2022-08-04T02:19:55.832Z,1008.74
2022-08-04T02:20:28.761Z,1008.74
2022-08-04T02:20:59.692Z,1008.63
2022-08-04T02:21:42.439Z,1008.63
2022-08-04T02:22:04.480Z,1008.53
2022-08-04T02:22:35.887Z,1008.63
2022-08-04T02:23:08.601Z,1008.63
2022-08-04T02:23:36.920Z,1008.43
2022-08-04T02:23:55.791Z,1008.43
2022-08-04T02:24:27.582Z,1008.43
2022-08-04T02:25:00.752Z,1008.43
2022-08-04T02:25:31.711Z,1008.43
2022-08-04T02:26:03.915Z,1008.53
2022-08-04T02:26:34.853Z,1008.74
2022-08-04T02:27:08.686Z,1008.74
2022-08-04T02:28:00.578Z,1008.53
2022-08-04T02:28:11.819Z,1008.53
2022-08-04T02:28:34.934Z,1008.53
2022-08-04T02:28:59.894Z,1008.53
2022-08-04T02:29:32.791Z,1008.53
2022-08-04T02:30:03.969Z,1008.63
2022-08-04T02:30:36.656Z,1008.63
2022-08-04T02:31:07.789Z,1008.63
2022-08-04T02:31:34.788Z,1008.74
2022-08-04T02:31:55.874Z,1008.74
2022-08-04T02:32:29.808Z,1008.74
2022-08-04T02:32:59.815Z,1008.53
2022-08-04T02:33:31.710Z,1008.53
2022-08-04T02:34:04.477Z,1008.84
2022-08-04T02:34:34.823Z,1008.74
2022-08-04T02:35:07.650Z,1008.74
2022-08-04T02:35:34.722Z,1008.94
2022-08-04T02:35:57.689Z,1008.94
2022-08-04T02:36:27.766Z,1008.94
2022-08-04T02:36:59.880Z,1008.63
2022-08-04T02:37:31.726Z,1008.63
2022-08-04T02:38:03.831Z,1008.94
2022-08-04T02:38:35.274Z,1008.63
2022-08-04T02:38:51.918Z,1008.63
2022-08-04T02:39:23.718Z,1008.63
2022-08-04T02:39:48.827Z,1008.53
2022-08-04T02:40:11.845Z,1008.53
2022-08-04T02:40:34.766Z,1008.63
2022-08-04T02:41:00.449Z,1008.63
2022-08-04T02:41:31.771Z,1008.63
2022-08-04T02:42:03.909Z,1008.84
2022-08-04T02:42:35.479Z,1008.74
2022-08-04T02:43:07.725Z,1008.74
2022-08-04T02:43:51.546Z,1008.63
2022-08-04T02:43:55.795Z,1008.63
2022-08-04T02:44:27.831Z,1008.63
2022-08-04T02:45:00.818Z,1009.04
2022-08-04T02:45:31.808Z,1009.04
2022-08-04T02:46:03.912Z,1008.94
2022-08-04T02:46:34.863Z,1008.74
2022-08-04T02:46:51.841Z,1008.74
2022-08-04T02:48:30.596Z,1008.74
2022-08-04T02:48:35.996Z,1008.63
2022-08-04T02:49:00.442Z,1008.63
2022-08-04T02:49:33.735Z,1008.63
2022-08-04T02:50:03.817Z,1008.84
2022-08-04T02:50:34.757Z,1008.74
2022-08-04T02:50:52.218Z,1008.74
2022-08-04T02:51:23.673Z,1008.74
2022-08-04T02:51:40.994Z,1008.74
2022-08-04T02:52:11.825Z,1008.74
2022-08-04T02:52:34.872Z,1008.74
2022-08-04T02:53:01.460Z,1008.74
2022-08-04T02:53:31.825Z,1008.74
2022-08-04T02:54:04.733Z,1008.53
2022-08-04T02:54:34.886Z,1008.53
2022-08-04T02:54:51.765Z,1008.53
2022-08-04T02:55:25.688Z,1008.53
2022-08-04T02:55:51.071Z,1008.63
2022-08-04T02:56:14.323Z,1008.63
2022-08-04T02:56:37.514Z,1008.94
2022-08-04T02:56:59.821Z,1008.94
2022-08-04T02:57:32.499Z,1008.94
2022-08-04T02:58:04.081Z,1008.53
2022-08-04T02:58:34.870Z,1008.63
2022-08-04T02:59:07.667Z,1008.63
2022-08-04T02:59:34.839Z,1008.53
2022-08-04T02:59:55.546Z,1008.53
2022-08-04T03:00:28.624Z,1008.53
2022-08-04T03:01:00.437Z,1008.74
2022-08-04T03:01:31.872Z,1008.74
2022-08-04T03:02:03.921Z,1008.63
2022-08-04T03:02:35.615Z,1008.74
2022-08-04T03:03:07.714Z,1008.74
2022-08-04T03:03:34.834Z,1008.74
2022-08-04T03:03:55.778Z,1008.74
2022-08-04T03:04:27.756Z,1008.74
2022-08-04T03:04:59.747Z,1008.63
2022-08-04T03:05:31.767Z,1008.63
2022-08-04T03:06:08.708Z,1008.63
2022-08-04T03:06:34.896Z,1008.74
2022-08-04T03:06:51.761Z,1008.74
2022-08-04T03:07:24.903Z,1008.74
2022-08-04T03:07:42.918Z,1008.53
2022-08-04T03:08:12.931Z,1008.53
2022-08-04T03:08:35.677Z,1008.84
2022-08-04T03:08:59.845Z,1008.84
2022-08-04T03:09:35.054Z,1008.84
2022-08-04T03:10:03.892Z,1008.84
2022-08-04T03:10:36.103Z,1008.53
2022-08-04T03:11:07.646Z,1008.53
2022-08-04T03:11:34.872Z,1008.63
2022-08-04T03:11:56.791Z,1008.63
2022-08-04T03:12:27.710Z,1008.63
2022-08-04T03:13:00.817Z,1008.63
2022-08-04T03:13:33.036Z,1008.63
2022-08-04T03:14:05.177Z,1008.84
2022-08-04T03:14:36.794Z,1008.74
2022-08-04T03:15:07.965Z,1008.74
2022-08-04T03:15:35.996Z,1008.63
2022-08-04T03:15:57.676Z,1008.63
2022-08-04T03:16:30.727Z,1008.63
2022-08-04T03:16:59.779Z,1008.63
2022-08-04T03:17:31.829Z,1008.63
2022-08-04T03:18:03.783Z,1008.63
2022-08-04T03:18:36.254Z,1008.43
2022-08-04T03:19:07.729Z,1008.43
2022-08-04T03:19:34.888Z,1008.84
2022-08-04T03:19:55.711Z,1008.84
2022-08-04T03:20:27.699Z,1008.84
2022-08-04T03:20:59.614Z,1008.63
2022-08-04T03:21:33.081Z,1008.63
2022-08-04T03:22:03.935Z,1008.84
2022-08-04T03:22:35.340Z,1008.84
2022-08-04T03:23:13.433Z,1008.84
2022-08-04T03:23:34.811Z,1008.53
2022-08-04T03:23:55.749Z,1008.53
2022-08-04T03:24:27.748Z,1008.53
2022-08-04T03:25:00.785Z,1008.53
2022-08-04T03:25:31.773Z,1008.53
2022-08-04T03:26:04.035Z,1008.84
2022-08-04T03:26:35.657Z,1008.74
2022-08-04T03:27:07.838Z,1008.74
2022-08-04T03:27:34.850Z,1008.53
2022-08-04T03:27:56.443Z,1008.53
2022-08-04T03:28:27.770Z,1008.53
2022-08-04T03:28:59.639Z,1008.63
2022-08-04T03:29:36.328Z,1008.63
2022-08-04T03:30:03.945Z,1008.74
2022-08-04T03:30:35.817Z,1008.94
2022-08-04T03:31:07.669Z,1008.94
2022-08-04T03:31:36.245Z,1008.74
2022-08-04T03:31:55.707Z,1008.74
2022-08-04T03:32:27.760Z,1008.74
2022-08-04T03:33:00.399Z,1008.84
2022-08-04T03:33:31.736Z,1008.84
2022-08-04T03:34:03.906Z,1008.84
2022-08-04T03:34:34.747Z,1008.84
2022-08-04T03:34:51.781Z,1008.84
2022-08-04T03:35:23.687Z,1008.84
2022-08-04T03:35:41.033Z,1008.74
2022-08-04T03:36:11.756Z,1008.74
2022-08-04T03:36:34.867Z,1008.63
2022-08-04T03:36:59.804Z,1008.63
2022-08-04T03:37:31.738Z,1008.63
2022-08-04T03:38:04.639Z,1008.74
2022-08-04T03:38:35.725Z,1008.84
2022-08-04T03:39:07.694Z,1008.84
2022-08-04T03:39:34.918Z,1008.84
2022-08-04T03:39:55.661Z,1008.84
2022-08-04T03:40:27.459Z,1008.84
2022-08-04T03:40:59.660Z,1008.74
2022-08-04T03:41:51.586Z,1008.74
2022-08-04T03:42:20.381Z,1008.63
2022-08-04T03:42:51.738Z,1008.94
2022-08-04T03:43:58.124Z,1008.94
2022-08-04T03:44:11.685Z,1008.94
2022-08-04T03:44:34.830Z,1008.84
2022-08-04T03:45:00.733Z,1008.84
2022-08-04T03:45:31.772Z,1008.84
2022-08-04T03:46:03.949Z,1008.63
2022-08-04T03:46:35.939Z,1008.74
2022-08-04T03:47:07.809Z,1008.74
2022-08-04T03:47:36.343Z,1008.74
2022-08-04T03:47:55.657Z,1008.74
2022-08-04T03:48:27.715Z,1008.74
2022-08-04T03:49:00.522Z,1008.74
2022-08-04T03:49:32.835Z,1008.74
2022-08-04T03:50:04.499Z,1008.63
2022-08-04T03:50:38.343Z,1008.63
2022-08-04T03:50:51.747Z,1008.63
2022-08-04T03:51:35.004Z,1008.63
2022-08-04T03:51:40.862Z,1008.84
2022-08-04T03:52:11.661Z,1008.84
2022-08-04T03:52:35.519Z,1008.74
2022-08-04T03:52:59.869Z,1008.74
2022-08-04T03:53:31.761Z,1008.74
2022-08-04T03:54:03.910Z,1008.84
2022-08-04T03:54:34.825Z,1008.94
2022-08-04T03:54:51.854Z,1008.94
2022-08-04T03:55:23.761Z,1008.94
2022-08-04T03:55:41.039Z,1008.74
2022-08-04T03:56:11.728Z,1008.74
2022-08-04T03:56:35.027Z,1008.74
2022-08-04T03:56:59.633Z,1008.74
2022-08-04T03:57:31.736Z,1008.74
2022-08-04T03:58:04.723Z,1008.63
2022-08-04T03:58:35.532Z,1008.94
2022-08-04T03:59:07.873Z,1008.94
2022-08-04T03:59:35.978Z,1008.84
2022-08-04T03:59:56.813Z,1008.84
2022-08-04T04:00:28.002Z,1008.84
2022-08-04T04:00:59.724Z,1008.84
2022-08-04T04:02:01.474Z,1008.84
2022-08-04T04:02:19.755Z,1008.94
2022-08-04T04:02:51.956Z,1008.84
2022-08-04T04:03:29.189Z,1008.84
2022-08-04T04:03:41.575Z,1008.94
2022-08-04T04:04:11.910Z,1008.94
2022-08-04T04:04:34.937Z,1008.94
2022-08-04T04:04:59.944Z,1008.94
2022-08-04T04:05:36.664Z,1008.94
2022-08-04T04:06:04.118Z,1008.94
2022-08-04T04:06:35.392Z,1008.74
2022-08-04T04:06:53.900Z,1008.74
2022-08-04T04:07:31.874Z,1008.74
2022-08-04T04:07:40.973Z,1008.94
2022-08-04T04:08:19.316Z,1008.94
2022-08-04T04:08:34.976Z,1008.63
2022-08-04T04:09:00.819Z,1008.63
2022-08-04T04:09:57.006Z,1008.63
2022-08-04T04:10:06.388Z,1008.94
2022-08-04T04:10:35.027Z,1008.94
2022-08-04T04:10:51.995Z,1008.94
2022-08-04T04:11:23.934Z,1008.94
2022-08-04T04:11:57.511Z,1008.84
2022-08-04T04:12:11.906Z,1008.84
2022-08-04T04:12:35.005Z,1008.94
2022-08-04T04:12:59.879Z,1008.94
2022-08-04T04:13:32.773Z,1008.94
2022-08-04T04:14:04.054Z,1008.94
2022-08-04T04:14:34.946Z,1008.84
2022-08-04T04:14:51.954Z,1008.84
2022-08-04T04:15:23.953Z,1008.84
2022-08-04T04:15:41.021Z,1008.84
2022-08-04T04:16:13.446Z,1008.84
2022-08-04T04:16:35.030Z,1008.84
2022-08-04T04:16:59.945Z,1008.84
2022-08-04T04:17:31.800Z,1008.84
2022-08-04T04:18:04.133Z,1008.84
2022-08-04T04:18:36.675Z,1008.84
2022-08-04T04:19:07.955Z,1008.84
2022-08-04T04:19:34.970Z,1009.04
2022-08-04T04:19:58.459Z,1009.04
2022-08-04T04:20:28.593Z,1009.04
2022-08-04T04:20:59.736Z,1008.94
2022-08-04T04:21:31.947Z,1008.94
2022-08-04T04:22:04.058Z,1008.94
2022-08-04T04:22:38.352Z,1009.04
2022-08-04T04:23:10.219Z,1009.04
2022-08-04T04:23:23.785Z,1009.04
2022-08-04T04:23:41.493Z,1008.84
2022-08-04T04:24:11.784Z,1008.84
2022-08-04T04:24:35.778Z,1008.94
2022-08-04T04:25:00.017Z,1008.94
2022-08-04T04:25:31.935Z,1008.94
2022-08-04T04:26:04.033Z,1009.11
2022-08-04T04:26:35.023Z,1008.94
2022-08-04T04:27:07.421Z,1008.94
2022-08-04T04:27:24.123Z,1008.94
2022-08-04T04:27:42.044Z,1009.04
2022-08-04T04:28:44.184Z,1009.04
2022-08-04T04:29:03.356Z,1008.94
2022-08-04T04:29:31.876Z,1008.94
2022-08-04T04:30:04.110Z,1008.94
2022-08-04T04:30:34.948Z,1008.94
2022-08-04T04:30:51.399Z,1008.94
2022-08-04T04:31:23.913Z,1008.94
2022-08-04T04:31:41.000Z,1008.94
2022-08-04T04:32:11.917Z,1008.94
2022-08-04T04:32:35.038Z,1008.84
2022-08-04T04:33:00.526Z,1008.84
2022-08-04T04:33:31.789Z,1008.84
2022-08-04T04:34:04.009Z,1008.84
2022-08-04T04:34:34.990Z,1008.84
2022-08-04T04:34:51.822Z,1008.84
2022-08-04T04:35:23.909Z,1008.84
2022-08-04T04:35:40.823Z,1008.94
2022-08-04T04:36:12.601Z,1008.94
2022-08-04T04:36:35.033Z,1008.84
2022-08-04T04:36:59.817Z,1008.84
2022-08-04T04:37:31.922Z,1008.84
2022-08-04T04:38:04.050Z,1008.94
2022-08-04T04:38:35.023Z,1009.04
2022-08-04T04:38:52.062Z,1009.04
2022-08-04T04:39:24.119Z,1009.04
2022-08-04T04:39:41.034Z,1008.84
2022-08-04T04:40:11.857Z,1008.84
2022-08-04T04:40:35.953Z,1008.94
2022-08-04T04:41:00.752Z,1008.94
2022-08-04T04:41:31.889Z,1008.94
2022-08-04T04:42:04.268Z,1009.04
2022-08-04T04:42:35.057Z,1008.84
2022-08-04T04:42:52.025Z,1008.84
2022-08-04T04:43:23.881Z,1008.84
2022-08-04T04:43:55.630Z,1008.94
2022-08-04T04:44:30.742Z,1008.94
2022-08-04T04:44:59.903Z,1009.04
2022-08-04T04:45:32.047Z,1009.04
2022-08-04T04:46:04.151Z,1008.74
2022-08-04T04:46:34.951Z,1008.84
2022-08-04T04:46:52.412Z,1008.84
2022-08-04T04:47:43.084Z,1008.84
2022-08-04T04:48:27.726Z,1008.94
2022-08-04T04:48:59.772Z,1008.94
2022-08-04T04:49:31.667Z,1008.94
2022-08-04T04:50:04.131Z,1009.04
2022-08-04T04:50:36.888Z,1009.04
2022-08-04T04:51:07.165Z,1009.04
2022-08-04T04:51:24.978Z,1009.04
2022-08-04T04:51:42.186Z,1008.94
2022-08-04T04:52:11.832Z,1008.94
2022-08-04T04:52:34.963Z,1008.74
2022-08-04T04:53:00.701Z,1008.74
2022-08-04T04:53:31.890Z,1008.74
2022-08-04T04:54:03.968Z,1008.74
2022-08-04T04:54:36.058Z,1008.84
2022-08-04T04:55:08.278Z,1008.84
2022-08-04T04:55:35.784Z,1009.04
2022-08-04T04:55:55.842Z,1009.04
2022-08-04T04:56:28.515Z,1009.04
2022-08-04T04:56:59.719Z,1009.21
2022-08-04T04:57:54.748Z,1009.21
2022-08-04T04:58:03.988Z,1009.04
2022-08-04T04:58:34.980Z,1009.04
2022-08-04T04:59:07.277Z,1009.04
2022-08-04T04:59:23.881Z,1009.04
2022-08-04T04:59:40.792Z,1008.84
2022-08-04T05:00:12.009Z,1008.84
2022-08-04T05:00:35.024Z,1008.94
2022-08-04T05:00:59.682Z,1008.94
2022-08-04T05:01:32.557Z,1008.94
2022-08-04T05:02:04.386Z,1008.84
2022-08-04T05:02:35.038Z,1008.94
2022-08-04T05:03:09.437Z,1008.94
2022-08-04T05:03:23.859Z,1008.94
2022-08-04T05:03:40.916Z,1009.04
2022-08-04T05:04:12.243Z,1009.04
2022-08-04T05:04:36.349Z,1009.04
2022-08-04T05:04:59.835Z,1009.04
2022-08-04T05:05:31.870Z,1009.04
2022-08-04T05:06:03.950Z,1008.84
2022-08-04T05:06:35.824Z,1008.94
2022-08-04T05:07:07.797Z,1008.94
2022-08-04T05:07:36.042Z,1008.94
2022-08-04T05:07:55.707Z,1008.94
2022-08-04T05:08:45.142Z,1008.94
2022-08-04T05:09:01.519Z,1008.94
2022-08-04T05:09:31.701Z,1008.94
2022-08-04T05:10:04.636Z,1008.84
2022-08-04T05:10:34.946Z,1008.94
2022-08-04T05:11:07.203Z,1008.94
2022-08-04T05:11:24.015Z,1008.94
2022-08-04T05:11:41.510Z,1008.94
2022-08-04T05:12:59.164Z,1008.94
2022-08-04T05:14:41.078Z,1008.94
2022-08-04T05:15:07.854Z,1008.94
2022-08-04T05:15:35.013Z,1008.94
2022-08-04T05:15:55.728Z,1008.94
2022-08-04T05:16:28.610Z,1008.94
2022-08-04T05:16:59.739Z,1008.94
2022-08-04T05:17:31.877Z,1008.94
2022-08-04T05:18:03.988Z,1008.84
2022-08-04T05:18:34.963Z,1008.84
2022-08-04T05:19:07.163Z,1008.84
2022-08-04T05:19:23.932Z,1008.84
2022-08-04T05:19:40.841Z,1009.04
2022-08-04T05:20:11.779Z,1009.04
2022-08-04T05:20:36.098Z,1008.94
2022-08-04T05:20:59.727Z,1008.94
2022-08-04T05:21:31.894Z,1008.94
2022-08-04T05:22:04.008Z,1008.94
2022-08-04T05:22:36.321Z,1008.94
2022-08-04T05:23:07.851Z,1008.94
2022-08-04T05:23:35.045Z,1008.94
2022-08-04T05:23:56.732Z,1008.94
2022-08-04T05:24:28.808Z,1008.94
2022-08-04T05:25:00.681Z,1009.04
2022-08-04T05:25:34.298Z,1009.04
2022-08-04T05:26:04.048Z,1008.94
2022-08-04T05:26:37.036Z,1009.04
2022-08-04T05:27:07.994Z,1009.04
2022-08-04T05:27:39.993Z,1009.04
2022-08-04T05:27:55.680Z,1009.04
2022-08-04T05:28:27.754Z,1009.04
2022-08-04T05:28:59.639Z,1009.04
2022-08-04T05:29:32.082Z,1009.04
2022-08-04T05:30:04.701Z,1009.04
2022-08-04T05:30:34.975Z,1009.11
2022-08-04T05:30:51.431Z,1009.11
2022-08-04T05:31:23.886Z,1009.11
2022-08-04T05:31:40.858Z,1009.11
2022-08-04T05:32:11.846Z,1009.11
2022-08-04T05:32:35.010Z,1008.94
2022-08-04T05:33:00.185Z,1008.94
2022-08-04T05:33:31.842Z,1008.94
2022-08-04T05:34:03.973Z,1008.94
2022-08-04T05:34:34.955Z,1008.94
2022-08-04T05:34:51.554Z,1008.94
2022-08-04T05:35:55.806Z,1008.94
2022-08-04T05:37:00.478Z,1009.04
2022-08-04T05:37:32.663Z,1009.04
2022-08-04T05:38:04.057Z,1009.11
2022-08-04T05:38:36.834Z,1009.04
2022-08-04T05:39:07.792Z,1009.04
2022-08-04T05:39:35.042Z,1009.04
2022-08-04T05:39:56.554Z,1009.04
2022-08-04T05:40:29.871Z,1009.04
2022-08-04T05:40:59.700Z,1008.94
2022-08-04T05:41:32.327Z,1008.94
2022-08-04T05:42:07.256Z,1008.94
2022-08-04T05:42:34.967Z,1008.94
2022-08-04T05:42:52.502Z,1008.94
2022-08-04T05:43:23.903Z,1008.94
2022-08-04T05:43:40.713Z,1009.21
2022-08-04T05:44:11.759Z,1009.21
2022-08-04T05:44:34.969Z,1009.04
2022-08-04T05:44:59.759Z,1009.04
2022-08-04T05:45:39.272Z,1009.04
2022-08-04T05:46:04.043Z,1009.04
2022-08-04T05:46:36.792Z,1009.11
2022-08-04T05:47:08.397Z,1009.11
2022-08-04T05:47:34.954Z,1009.11
2022-08-04T05:47:55.722Z,1009.11
2022-08-04T05:48:27.746Z,1009.11
2022-08-04T05:48:59.746Z,1009.11
2022-08-04T05:49:31.693Z,1009.11
2022-08-04T05:50:04.631Z,1009.11
2022-08-04T05:50:36.032Z,1009.04
2022-08-04T05:50:51.438Z,1009.04
2022-08-04T05:51:23.883Z,1009.04
2022-08-04T05:51:41.619Z,1009.11
2022-08-04T05:52:12.567Z,1009.11
2022-08-04T05:52:34.939Z,1009.21
2022-08-04T05:53:01.310Z,1009.21
2022-08-04T05:53:31.689Z,1009.21